Time;durP1;ratioP1;P1;durP2;ratioP2;P2;SDS_P1;SDS_P2;PMS_P1;PMS_P2;Temp;Humidity;BMP_temperature;BMP_pressure;BME280_temperature;BME280_humidity;BME280_pressure;Samples;Min_cycle;Max_cycle;Signal;HPM_P1;HPM_P2
2021/09/05 00:00:55;;;;;;;;;;;;;;;25.50;46.24;100986.48;110527;1233;74779;-87
2021/09/05 00:04:12;;;;;;;5.70;4.10;;;;;;;25.48;46.22;100989.01;110720;1235;61000;-87
2021/09/05 00:07:04;;;;;;;6.20;4.00;;;;;;;25.49;46.15;100994.17;110575;1238;61128;-88
2021/09/05 00:10:12;;;;;;;6.20;4.20;;;;;;;25.49;46.10;100995.81;110577;1238;72284;-90
2021/09/05 00:16:59;;;;;;;5.80;4.10;;;;;;;25.48;46.29;100998.73;109889;1247;61166;-85
2021/09/05 00:19:48;;;;;;;5.20;3.70;;;;;;;25.48;46.18;100999.98;109723;1251;61969;-80
2021/09/05 00:22:54;;;;;;;;;;;;;;;25.49;46.35;100999.94;109787;1247;71161;-88
2021/09/05 00:26:12;;;;;;;5.70;3.70;;;;;;;25.47;46.29;100998.50;109867;1247;73308;-87
2021/09/05 00:29:18;;;;;;;5.20;3.80;;;;;;;25.47;46.23;100999.76;109911;1247;61482;-91
2021/09/05 00:32:33;;;;;;;5.30;3.90;;;;;;;25.47;46.34;100998.98;109908;1247;61460;-87
2021/09/05 00:35:15;;;;;;;4.80;3.70;;;;;;;25.47;46.33;101001.70;109966;1245;73566;-85
2021/09/05 00:38:29;;;;;;;5.60;4.10;;;;;;;25.47;46.32;100997.94;110174;1245;66564;-87
2021/09/05 00:41:30;;;;;;;;;;;;;;;;;;;;;
2021/09/05 00:44:47;;;;;;;8.10;4.10;;;;;;;25.48;46.26;101007.23;110235;1242;61026;-88
2021/09/05 00:47:54;;;;;;;;;;;;;;;;;;;;;
2021/09/05 00:50:47;;;;;;;6.20;4.00;;;;;;;25.48;46.27;101003.48;110032;1244;75668;-86
2021/09/05 00:53:46;;;;;;;;;;;;;;;;;;;;;
2021/09/05 00:56:51;;;;;;;5.40;3.70;;;;;;;25.48;46.29;101004.00;110334;1235;60964;-85
2021/09/05 00:59:39;;;;;;;5.40;3.70;;;;;;;25.48;46.31;101003.27;110574;1238;71916;-82
2021/09/05 01:02:20;;;;;;;5.70;4.00;;;;;;;25.48;46.32;101004.91;110600;1235;68607;-87
2021/09/05 01:05:08;;;;;;;5.80;4.00;;;;;;;25.48;46.28;101007.58;110620;1238;60960;-89
2021/09/05 01:08:05;;;;;;;;;;;;;;;;;;;;;
2021/09/05 01:11:06;;;;;;;;;;;;;;;;;;;;;
2021/09/05 01:14:00;;;;;;;5.50;3.90;;;;;;;25.48;46.35;101012.87;110602;1237;74650;-88
2021/09/05 01:17:26;;;;;;;5.20;3.90;;;;;;;25.47;46.37;101010.73;110576;1232;61046;-83
2021/09/05 01:20:35;;;;;;;5.80;4.00;;;;;;;25.47;46.43;101009.71;110425;1232;61517;-84
2021/09/05 01:23:41;;;;;;;5.80;3.90;;;;;;;25.47;46.28;101012.41;110140;1242;63714;-86
2021/09/05 01:26:46;;;;;;;;;;;;;;;;;;;;;
2021/09/05 01:29:53;;;;;;;;;;;;;;;;;;;;;
2021/09/05 01:33:03;;;;;;;5.20;3.50;;;;;;;25.47;46.51;101024.97;110346;1234;61161;-83
2021/09/05 01:35:51;;;;;;;;;;;;;;;25.47;46.62;101023.36;110335;1241;71502;-84
2021/09/05 01:39:16;;;;;;;5.80;3.40;;;;;;;25.44;46.54;101024.66;110442;1238;73240;-81
2021/09/05 01:42:06;;;;;;;5.60;4.00;;;;;;;25.45;46.50;101024.20;110596;1235;61245;-88
2021/09/05 01:45:02;;;;;;;6.40;3.90;;;;;;;25.46;46.31;101021.88;110603;1232;61019;-85
2021/09/05 01:48:15;;;;;;;;;;;;;;;;;;;;;
2021/09/05 01:51:28;;;;;;;5.70;3.50;;;;;;;25.45;46.42;101016.48;110362;1239;75484;-85
2021/09/05 01:54:34;;;;;;;6.40;4.10;;;;;;;25.46;46.40;101019.88;110332;1241;61238;-89
2021/09/05 01:57:26;;;;;;;6.60;3.90;;;;;;;25.45;46.68;101026.02;110105;1244;60989;-85
2021/09/05 02:00:22;;;;;;;5.70;3.80;;;;;;;25.46;46.55;101027.98;110128;1237;74094;-91
2021/09/05 02:03:47;;;;;;;;;;;;;;;;;;;;;
2021/09/05 02:06:55;;;;;;;;;;;;;;;;;;;;;
2021/09/05 02:09:55;;;;;;;5.20;3.70;;;;;;;25.45;46.65;101030.77;109884;1247;61014;-86
2021/09/05 02:13:27;;;;;;;5.60;3.70;;;;;;;25.45;46.61;101035.20;109961;1244;71406;-85
2021/09/05 02:16:17;;;;;;;;;;;;;;;;;;;;;
2021/09/05 02:19:34;;;;;;;;;;;;;;;;;;;;;
2021/09/05 02:22:49;;;;;;;;;;;;;;;;;;;;;
2021/09/05 02:25:50;;;;;;;5.10;3.70;;;;;;;25.45;46.68;101058.14;109539;1249;72711;-83
2021/09/05 02:28:58;;;;;;;;;;;;;;;;;;;;;
2021/09/05 02:31:49;;;;;;;6.60;4.20;;;;;;;25.44;46.60;101047.91;109132;1243;61090;-86
2021/09/05 02:34:56;;;;;;;;;;;;;;;25.45;46.81;101058.14;109244;1250;61331;-88
2021/09/05 02:38:15;;;;;;;6.20;4.30;;;;;;;25.42;46.75;101053.86;109744;1248;72921;-87
2021/09/05 02:41:23;;;;;;;6.10;3.80;;;;;;;25.43;46.54;101054.33;109603;1248;73217;-88
2021/09/05 02:44:51;;;;;;;;;;;;;;;;;;;;;
2021/09/05 02:47:41;;;;;;;6.10;3.60;;;;;;;25.43;46.58;101053.64;109810;1248;61046;-82
2021/09/05 02:50:38;;;;;;;5.50;3.90;;;;;;;25.43;46.72;101054.34;109767;1248;64131;-87
2021/09/05 02:54:10;;;;;;;5.00;3.50;;;;;;;25.42;46.66;101066.79;109677;1250;73268;-87
2021/09/05 02:57:06;;;;;;;5.10;3.80;;;;;;;25.43;46.77;101062.26;109084;1253;61309;-86
2021/09/05 03:00:07;;;;;;;;;;;;;;;;;;;;;
2021/09/05 03:03:04;;;;;;;5.50;3.70;;;;;;;25.42;46.67;101062.45;109715;1249;72238;-87
2021/09/05 03:06:03;;;;;;;5.90;3.70;;;;;;;25.42;46.61;101065.69;109913;1242;74697;-90
2021/09/05 03:09:03;;;;;;;4.60;3.50;;;;;;;25.42;46.80;101062.29;110154;1244;61739;-88
2021/09/05 03:11:55;;;;;;;5.50;3.70;;;;;;;25.42;46.76;101065.36;110134;1243;61236;-85
2021/09/05 03:14:58;;;;;;;;;;;;;;;;;;;;;
2021/09/05 03:18:25;;;;;;;6.20;4.10;;;;;;;25.42;46.61;101067.94;110079;1244;73179;-89
2021/09/05 03:21:14;;;;;;;5.40;3.80;;;;;;;25.41;46.76;101068.67;109834;1242;61242;-80
2021/09/05 03:24:18;;;;;;;;;;;;;;;;;;;;;
2021/09/05 03:27:29;;;;;;;5.20;3.80;;;;;;;25.41;46.78;101079.13;109358;1251;71150;-86
2021/09/05 03:30:32;;;;;;;6.00;4.10;;;;;;;25.41;46.80;101078.96;109409;1250;67290;-88
2021/09/05 03:33:56;;;;;;;5.20;3.80;;;;;;;25.41;46.80;101080.79;109840;1241;61132;-90
2021/09/05 03:36:54;;;;;;;5.70;3.80;;;;;;;25.41;46.81;101085.65;110334;1241;61085;-85
2021/09/05 03:40:00;;;;;;;5.10;3.80;;;;;;;25.41;46.71;101088.36;110077;1244;71286;-82
2021/09/05 03:43:15;;;;;;;6.50;4.10;;;;;;;25.40;46.83;101091.32;110065;1244;73278;-84
2021/09/05 03:45:58;;;;;;;5.60;3.90;;;;;;;25.41;46.91;101100.63;110109;1244;61057;-87
2021/09/05 03:49:28;;;;;;;5.90;3.50;;;;;;;25.40;46.93;101105.16;110146;1243;61343;-84
2021/09/05 03:52:18;;;;;;;5.40;3.80;;;;;;;25.41;46.80;101104.95;110195;1242;72482;-84
2021/09/05 03:55:38;;;;;;;5.80;4.00;;;;;;;25.40;47.05;101109.30;110194;1241;73146;-88
2021/09/05 03:58:34;;;;;;;5.60;3.80;;;;;;;25.40;46.81;101115.77;110398;1240;61037;-88
2021/09/05 04:01:51;;;;;;;5.40;4.10;;;;;;;25.40;46.88;101118.14;110298;1241;61105;-85
2021/09/05 04:04:51;;;;;;;5.30;3.80;;;;;;;25.40;46.87;101120.13;110444;1238;73444;-85
2021/09/05 04:08:12;;;;;;;6.20;3.60;;;;;;;25.40;46.88;101127.54;110548;1238;73253;-91
2021/09/05 04:11:25;;;;;;;5.90;4.00;;;;;;;25.40;46.93;101128.09;110585;1238;61007;-86
2021/09/05 04:14:20;;;;;;;4.70;3.40;;;;;;;25.40;47.02;101136.95;110343;1240;61333;-84
2021/09/05 04:17:26;;;;;;;;;;;;;;;;;;;;;
2021/09/05 04:20:32;;;;;;;5.70;3.70;;;;;;;25.40;46.96;101150.80;110599;1239;65662;-87
2021/09/05 04:23:21;;;;;;;;;;;;;;;;;;;;;
2021/09/05 04:26:36;;;;;;;5.20;3.70;;;;;;;25.40;47.00;101157.45;110290;1241;61021;-84
2021/09/05 04:29:53;;;;;;;5.20;3.60;;;;;;;25.40;47.11;101166.66;110263;1241;71256;-86
2021/09/05 04:33:21;;;;;;;5.60;3.80;;;;;;;25.40;47.04;101173.33;110361;1240;66236;-88
2021/09/05 04:36:22;;;;;;;5.70;3.80;;;;;;;25.40;47.10;101177.95;110347;1241;61085;-85
2021/09/05 04:39:10;;;;;;;4.60;3.50;;;;;;;25.40;47.08;101180.33;110477;1239;61091;-89
2021/09/05 04:42:02;;;;;;;6.20;3.90;;;;;;;25.40;47.13;101183.01;110619;1239;63075;-86
2021/09/05 04:45:10;;;;;;;;;;;;;;;;;;;;;
2021/09/05 04:48:15;;;;;;;;;;;;;;;;;;;;;
2021/09/05 04:51:20;;;;;;;;;;;;;;;;;;;;;
2021/09/05 04:54:26;;;;;;;5.60;3.60;;;;;;;25.40;47.13;101193.44;110613;1238;66377;-82
2021/09/05 04:57:24;;;;;;;5.60;3.70;;;;;;;25.41;47.08;101194.30;110380;1240;74784;-83
2021/09/05 05:00:32;;;;;;;5.20;3.70;;;;;;;25.41;47.12;101194.86;110478;1237;62683;-87
2021/09/05 05:03:45;;;;;;;5.40;4.00;;;;;;;25.41;47.13;101195.23;110579;1238;61097;-83
2021/09/05 05:06:51;;;;;;;;;;;;;;;;;;;;;
2021/09/05 05:09:59;;;;;;;4.80;3.60;;;;;;;25.41;47.18;101193.39;110410;1233;74455;-84
2021/09/05 05:12:58;;;;;;;;;;;;;;;;;;;;;
2021/09/05 05:16:22;;;;;;;6.20;4.30;;;;;;;25.41;47.02;101200.24;110459;1238;61207;-86
2021/09/05 05:19:20;;;;;;;5.50;3.90;;;;;;;25.41;47.05;101196.82;110580;1231;72702;-88
2021/09/05 05:22:04;;;;;;;;;;;;;;;;;;;;;
2021/09/05 05:25:35;;;;;;;5.60;4.00;;;;;;;25.41;46.99;101202.92;110589;1233;61057;-88
2021/09/05 05:28:05;;;;;;;5.40;4.00;;;;;;;25.41;46.93;101206.89;110776;1233;60964;-89
2021/09/05 05:31:04;;;;;;;;;;;;;;;;;;;;;
2021/09/05 05:33:53;;;;;;;7.00;3.80;;;;;;;25.42;46.94;101214.38;111095;1227;74837;-86
2021/09/05 05:37:03;;;;;;;;;;;;;;;;;;;;;
2021/09/05 05:40:07;;;;;;;6.60;3.60;;;;;;;25.42;46.90;101219.61;110891;1229;60977;-87
2021/09/05 05:43:29;;;;;;;4.70;3.50;;;;;;;25.43;46.88;101221.00;110957;1228;73463;-84
2021/09/05 05:46:33;;;;;;;5.80;3.90;;;;;;;25.43;46.93;101221.17;111226;1225;74486;-87
2021/09/05 05:49:32;;;;;;;5.40;3.90;;;;;;;25.43;46.94;101222.38;111619;1221;61005;-81
2021/09/05 05:52:19;;;;;;;5.80;4.10;;;;;;;25.45;47.01;101222.44;111586;1228;61523;-88
2021/09/05 05:55:20;;;;;;;;;;;;;;;;;;;;;
2021/09/05 05:58:09;;;;;;;;;;;;;;;;;;;;;
2021/09/05 06:01:05;;;;;;;5.60;3.90;;;;;;;25.46;47.01;101225.95;111112;1226;61034;-84
2021/09/05 06:04:14;;;;;;;5.40;3.90;;;;;;;25.47;46.95;101224.63;111220;1232;61075;-86
2021/09/05 06:06:58;;;;;;;5.90;3.90;;;;;;;25.48;46.99;101223.48;111218;1232;63758;-89
2021/09/05 06:09:42;;;;;;;6.20;4.00;;;;;;;25.49;47.02;101228.23;111215;1224;65822;-85
2021/09/05 06:12:50;;;;;;;5.00;3.70;;;;;;;25.49;47.02;101231.46;111291;1224;61094;-90
2021/09/05 06:15:48;;;;;;;5.20;3.60;;;;;;;25.50;46.93;101234.81;111328;1231;60982;-85
2021/09/05 06:18:54;;;;;;;5.90;3.90;;;;;;;25.52;46.84;101238.98;111613;1229;63873;-90
2021/09/05 06:22:02;;;;;;;;;;;;;;;;;;;;;
2021/09/05 06:24:34;;;;;;;5.50;4.00;;;;;;;25.53;46.90;101241.75;112119;1225;60951;-89
2021/09/05 06:27:51;;;;;;;;;;;;;;;;;;;;;
2021/09/05 06:30:56;;;;;;;5.80;4.10;;;;;;;25.55;46.93;101245.71;112024;1218;62926;-86
2021/09/05 06:33:46;;;;;;;5.60;4.20;;;;;;;25.56;46.91;101246.58;111751;1228;66805;-86
2021/09/05 06:36:43;;;;;;;;;;;;;;;;;;;;;
2021/09/05 06:39:50;;;;;;;6.20;4.20;;;;;;;25.57;46.91;101258.15;111586;1225;61001;-88
2021/09/05 06:42:35;;;;;;;5.50;4.10;;;;;;;25.59;46.95;101258.02;111566;1221;72230;-86
2021/09/05 06:46:00;;;;;;;;;;;;;;;;;;;;;
2021/09/05 06:48:59;;;;;;;6.70;4.10;;;;;;;25.60;46.82;101267.34;110639;1236;61001;-85
2021/09/05 06:52:06;;;;;;;5.50;4.00;;;;;;;25.61;46.82;101270.13;110702;1236;60982;-86
2021/09/05 06:55:12;;;;;;;6.40;4.50;;;;;;;25.62;46.79;101268.58;110812;1236;73504;-88
2021/09/05 06:58:17;;;;;;;5.50;4.00;;;;;;;25.62;46.89;101269.83;110652;1237;66758;-85
2021/09/05 07:01:09;;;;;;;5.80;3.90;;;;;;;25.63;46.93;101269.77;110590;1237;61241;-87
2021/09/05 07:04:06;;;;;;;6.60;4.30;;;;;;;25.65;46.80;101269.85;110584;1239;61004;-89
2021/09/05 07:07:10;;;;;;;5.60;4.00;;;;;;;25.65;46.65;101275.71;110562;1239;73759;-81
2021/09/05 07:10:09;;;;;;;6.00;4.10;;;;;;;25.66;46.81;101277.48;110287;1242;66209;-84
2021/09/05 07:13:09;;;;;;;5.30;4.30;;;;;;;25.67;46.81;101283.87;110302;1241;61032;-86
2021/09/05 07:16:04;;;;;;;5.20;3.90;;;;;;;25.67;46.78;101283.83;110389;1240;61060;-80
2021/09/05 07:19:13;;;;;;;7.50;4.20;;;;;;;25.67;46.63;101286.73;110371;1240;73785;-86
2021/09/05 07:21:54;;;;;;;6.90;4.10;;;;;;;25.68;46.81;101289.18;110389;1239;74614;-89
2021/09/05 07:25:21;;;;;;;;;;;;;;;;;;;;;
2021/09/05 07:28:21;;;;;;;7.00;4.30;;;;;;;25.69;46.70;101286.95;110835;1236;61076;-87
2021/09/05 07:31:05;;;;;;;6.70;4.30;;;;;;;25.70;46.62;101286.71;110579;1238;72303;-89
2021/09/05 07:34:01;;;;;;;6.10;4.30;;;;;;;25.70;46.70;101286.34;110536;1238;66605;-83
2021/09/05 07:37:18;;;;;;;;;;;;;;;;;;;;;
2021/09/05 07:40:26;;;;;;;6.10;4.50;;;;;;;25.70;46.71;101298.38;110304;1242;61132;-92
2021/09/05 07:43:10;;;;;;;6.70;4.50;;;;;;;25.71;46.66;101295.42;110174;1244;73445;-85
2021/09/05 07:46:06;;;;;;;;;;;;;;;;;;;;;
2021/09/05 07:49:17;;;;;;;;;;;;;;;;;;;;;
2021/09/05 07:52:29;;;;;;;5.40;4.00;;;;;;;25.72;46.67;101297.71;110304;1241;60986;-84
2021/09/05 07:55:13;;;;;;;6.70;4.30;;;;;;;25.72;46.86;101299.14;110065;1244;75339;-84
2021/09/05 07:58:02;;;;;;;5.50;4.00;;;;;;;25.72;46.58;101300.92;110086;1244;75948;-85
2021/09/05 08:01:02;;;;;;;;;;;;;;;;;;;;;
2021/09/05 08:03:48;;;;;;;6.30;4.40;;;;;;;25.72;46.70;101302.36;110021;1246;61116;-89
2021/09/05 08:06:57;;;;;;;6.00;4.20;;;;;;;25.72;46.79;101301.83;109983;1245;62520;-88
2021/09/05 08:09:43;;;;;;;5.40;4.50;;;;;;;25.72;46.79;101305.79;110115;1243;74455;-90
2021/09/05 08:12:32;;;;;;;6.80;4.50;;;;;;;25.73;46.79;101308.27;110140;1244;61322;-85
2021/09/05 08:15:34;;;;;;;;;;;;;;;;;;;;;
2021/09/05 08:19:02;;;;;;;;;;;;;;;;;;;;;
2021/09/05 08:22:02;;;;;;;6.30;4.60;;;;;;;25.72;46.72;101305.63;110781;1236;74371;-83
2021/09/05 08:25:10;;;;;;;7.00;4.20;;;;;;;25.72;46.79;101309.42;110839;1236;61098;-84
2021/09/05 08:28:06;;;;;;;;;;;;;;;;;;;;;
2021/09/05 08:30:52;;;;;;;5.70;4.30;;;;;;;25.72;46.87;101307.26;110806;1236;63580;-81
2021/09/05 08:33:41;;;;;;;6.40;4.50;;;;;;;25.72;46.67;101300.35;111079;1233;74788;-83
2021/09/05 08:36:32;;;;;;;;;;;;;;;;;;;;;
2021/09/05 08:39:32;;;;;;;;;;;;;;;;;;;;;
2021/09/05 08:42:32;;;;;;;5.90;4.30;;;;;;;25.72;46.73;101301.63;111192;1230;73184;-84
2021/09/05 08:45:23;;;;;;;;;;;;;;;;;;;;;
2021/09/05 08:48:26;;;;;;;5.70;4.30;;;;;;;25.72;46.77;101294.80;111570;1229;61294;-87
2021/09/05 08:51:44;;;;;;;;;;;;;;;;;;;;;
2021/09/05 08:54:40;;;;;;;5.90;4.40;;;;;;;25.72;46.87;101296.92;111118;1232;73512;-88
2021/09/05 08:57:30;;;;;;;7.10;4.90;;;;;;;25.73;46.80;101297.45;111168;1232;75141;-89
2021/09/05 09:00:12;;;;;;;5.70;4.00;;;;;;;25.73;46.87;101294.38;111108;1233;61000;-86
2021/09/05 09:03:19;;;;;;;5.80;4.30;;;;;;;25.72;46.69;101289.34;111240;1232;61189;-86
2021/09/05 09:06:20;;;;;;;5.80;4.30;;;;;;;25.73;46.72;101293.30;111262;1230;72470;-89
2021/09/05 09:12:26;;;;;;;5.30;3.90;;;;;;;25.73;46.80;101294.75;111042;1233;61042;-89
2021/09/05 09:15:55;;;;;;;6.10;4.50;;;;;;;25.72;46.69;101299.46;110775;1235;61112;-86
2021/09/05 09:18:47;;;;;;;;;;;;;;;;;;;;;
2021/09/05 09:21:55;;;;;;;;;;;;;;;;;;;;;
2021/09/05 09:25:04;;;;;;;5.40;4.10;;;;;;;25.72;46.63;101299.46;110424;1240;61105;-89
2021/09/05 09:28:08;;;;;;;;;;;;;;;;;;;;;
2021/09/05 09:31:18;;;;;;;5.70;4.20;;;;;;;25.72;46.58;101300.56;110149;1241;70417;-87
2021/09/05 09:34:17;;;;;;;6.40;4.30;;;;;;;25.72;46.56;101296.02;110288;1242;75368;-84
2021/09/05 09:37:13;;;;;;;;;;;;;;;;;;;;;
2021/09/05 09:40:24;;;;;;;6.50;4.30;;;;;;;25.72;46.79;101284.70;110093;1244;61064;-84
2021/09/05 09:43:22;;;;;;;5.10;3.70;;;;;;;25.72;46.77;101283.06;110091;1245;63861;-86
2021/09/05 09:46:32;;;;;;;5.70;3.50;;;;;;;25.72;46.80;101285.05;109842;1249;67287;-90
2021/09/05 09:49:30;;;;;;;5.50;4.20;;;;;;;25.72;46.69;101285.77;109617;1250;60912;-85
2021/09/05 09:52:29;;;;;;;6.00;4.30;;;;;;;25.72;46.59;101287.61;109203;1249;61017;-82
2021/09/05 09:55:43;;;;;;;;;;;;;;;;;;;;;
2021/09/05 09:58:50;;;;;;;5.50;3.80;;;;;;;25.72;46.69;101289.55;109884;1247;65860;-84
2021/09/05 10:02:09;;;;;;;;;;;;;;;;;;;;;
2021/09/05 10:05:05;;;;;;;;;;;;;;;;;;;;;
2021/09/05 10:08:21;;;;;;;5.50;3.90;;;;;;;25.72;46.54;101290.64;110017;1245;64797;-81
2021/09/05 10:11:35;;;;;;;;;;;;;;;;;;;;;
2021/09/05 10:14:30;;;;;;;5.90;3.80;;;;;;;25.72;46.71;101290.81;110379;1240;61376;-86
2021/09/05 10:17:20;;;;;;;5.50;4.10;;;;;;;25.72;46.66;101293.53;110402;1240;61111;-89
2021/09/05 10:20:34;;;;;;;6.00;4.20;;;;;;;25.72;46.72;101290.46;110613;1240;64506;-86
2021/09/05 10:24:05;;;;;;;5.70;3.90;;;;;;;25.72;46.73;101288.87;110210;1241;65914;-85
2021/09/05 10:27:18;;;;;;;5.00;3.80;;;;;;;25.72;46.65;101288.50;110462;1232;61118;-86
2021/09/05 10:30:24;;;;;;;5.70;4.00;;;;;;;25.72;46.62;101292.29;110664;1232;59169;-86
2021/09/05 10:33:43;;;;;;;4.50;3.60;;;;;;;25.72;46.56;101287.77;110786;1229;72760;-83
2021/09/05 10:37:00;;;;;;;5.70;4.00;;;;;;;25.72;46.68;101297.69;110970;1229;74566;-87
2021/09/05 10:40:28;;;;;;;5.90;4.00;;;;;;;25.72;46.52;101301.79;111239;1231;61124;-84
2021/09/05 10:43:22;;;;;;;4.80;3.50;;;;;;;25.72;46.64;101298.94;111060;1227;61175;-90
2021/09/05 10:46:30;;;;;;;4.90;3.90;;;;;;;25.72;46.56;101297.65;111070;1225;72753;-89
2021/09/05 10:49:16;;;;;;;;;;;;;;;25.73;46.67;101294.38;111120;1233;74577;-85
2021/09/05 10:52:24;;;;;;;5.70;3.40;;;;;;;25.71;46.63;101296.89;111053;1233;61020;-85
2021/09/05 10:55:17;;;;;;;;;;;;;;;;;;;;;
2021/09/05 10:57:49;;;;;;;4.90;3.50;;;;;;;25.71;46.77;101298.27;111575;1221;73532;-86
2021/09/05 11:00:47;;;;;;;;;;;;;;;;;;;;;
2021/09/05 11:04:27;;;;;;;5.50;4.10;;;;;;;25.69;46.67;101292.13;112642;1221;61271;-84
2021/09/05 11:07:39;;;;;;;5.60;4.20;;;;;;;25.69;46.72;101294.85;112830;1221;61098;-85
2021/09/05 11:11:09;;;;;;;5.30;3.80;;;;;;;25.69;46.71;101284.41;112347;1224;72183;-88
2021/09/05 11:14:28;;;;;;;5.40;3.90;;;;;;;25.69;46.77;101290.36;112351;1216;76315;-89
2021/09/05 11:17:23;;;;;;;;;;;;;;;;;;;;;
2021/09/05 11:20:28;;;;;;;5.10;3.60;;;;;;;25.69;46.66;101286.91;112103;1219;61244;-90
2021/09/05 11:23:10;;;;;;;5.10;3.70;;;;;;;25.70;46.74;101282.92;111503;1221;72350;-83
2021/09/05 11:25:55;;;;;;;5.60;3.80;;;;;;;25.70;46.73;101287.42;111538;1221;66702;-83
2021/09/05 11:28:52;;;;;;;5.20;3.90;;;;;;;25.70;46.82;101282.71;111516;1221;61131;-82
2021/09/05 11:31:24;;;;;;;5.10;3.60;;;;;;;25.71;46.76;101284.46;111534;1222;61045;-85
2021/09/05 11:34:25;;;;;;;;;;;;;;;;;;;;;
2021/09/05 11:38:04;;;;;;;5.60;4.10;;;;;;;25.72;46.81;101282.58;111529;1228;74862;-87
2021/09/05 11:41:01;;;;;;;;;;;;;;;;;;;;;
2021/09/05 11:44:08;;;;;;;5.40;4.10;;;;;;;25.72;46.86;101275.86;111326;1225;60974;-88
2021/09/05 11:47:23;;;;;;;6.20;4.20;;;;;;;25.72;46.76;101271.23;111048;1234;73566;-88
2021/09/05 11:50:18;;;;;;;5.80;4.00;;;;;;;25.72;46.80;101269.43;110610;1236;74452;-89
2021/09/05 11:53:40;;;;;;;5.40;3.90;;;;;;;25.72;46.71;101270.83;110574;1238;61299;-83
2021/09/05 11:56:36;;;;;;;;;;;;;;;;;;;;;
2021/09/05 11:59:44;;;;;;;4.70;3.80;;;;;;;25.72;46.96;101277.65;110439;1233;72471;-88
2021/09/05 12:02:48;;;;;;;5.50;3.90;;;;;;;25.72;46.89;101270.48;110765;1236;66312;-88
2021/09/05 12:05:29;;;;;;;5.50;4.20;;;;;;;25.72;46.74;101267.38;110605;1231;61029;-85
2021/09/05 12:08:39;;;;;;;5.30;4.00;;;;;;;25.72;46.75;101264.73;110554;1237;60994;-86
2021/09/05 12:11:27;;;;;;;5.50;4.10;;;;;;;25.72;46.99;101267.77;110483;1240;63745;-85
2021/09/05 12:14:34;;;;;;;5.40;3.90;;;;;;;25.72;46.76;101261.95;110461;1233;73396;-81
2021/09/05 12:18:01;;;;;;;5.10;3.80;;;;;;;25.73;46.79;101263.91;110525;1232;61249;-84
2021/09/05 12:20:59;;;;;;;4.60;3.50;;;;;;;25.73;46.91;101265.02;110502;1232;61218;-85
2021/09/05 12:24:09;;;;;;;5.30;3.90;;;;;;;25.73;46.86;101264.61;110685;1232;72248;-86
2021/09/05 12:27:02;;;;;;;5.60;4.00;;;;;;;25.73;47.03;101262.98;111003;1230;75558;-84
2021/09/05 12:29:48;;;;;;;5.40;4.10;;;;;;;25.73;46.87;101261.34;111226;1228;61088;-87
2021/09/05 12:33:01;;;;;;;4.70;3.80;;;;;;;25.74;47.05;101255.55;111230;1232;61211;-92
2021/09/05 12:35:52;;;;;;;;;;;;;;;25.73;46.87;101255.73;111030;1229;72381;-83
2021/09/05 12:39:05;;;;;;;6.00;4.00;;;;;;;25.72;47.01;101251.35;111136;1232;65673;-85
2021/09/05 12:42:22;;;;;;;5.80;4.20;;;;;;;25.72;47.01;101248.14;111340;1222;61035;-83
2021/09/05 12:45:03;;;;;;;5.90;4.20;;;;;;;25.72;47.04;101247.76;111649;1221;61114;-84
2021/09/05 12:47:44;;;;;;;6.20;4.30;;;;;;;25.72;46.94;101254.03;111627;1220;64787;-83
2021/09/05 12:51:20;;;;;;;5.10;4.00;;;;;;;25.73;46.86;101253.25;111615;1221;75556;-87
2021/09/05 12:54:41;;;;;;;5.00;3.80;;;;;;;25.73;47.04;101254.33;111425;1224;61694;-81
2021/09/05 12:57:40;;;;;;;6.10;4.00;;;;;;;25.73;46.96;101254.17;111023;1234;60990;-85
2021/09/05 13:00:36;;;;;;;5.50;3.90;;;;;;;25.73;46.99;101255.77;111047;1227;72255;-87
2021/09/05 13:03:35;;;;;;;4.50;3.40;;;;;;;25.74;47.01;101254.98;110788;1234;73562;-91
2021/09/05 13:06:42;;;;;;;5.90;4.20;;;;;;;25.74;47.15;101259.16;110757;1228;61006;-84
2021/09/05 13:09:38;;;;;;;5.30;4.00;;;;;;;25.74;46.88;101256.81;111067;1227;61105;-85
2021/09/05 13:12:34;;;;;;;4.80;3.90;;;;;;;25.73;46.97;101256.48;111007;1227;63172;-87
2021/09/05 13:15:29;;;;;;;5.80;3.90;;;;;;;25.73;47.11;101257.39;111015;1227;65820;-89
2021/09/05 13:18:18;;;;;;;5.60;4.30;;;;;;;25.73;47.08;101256.11;111043;1227;61030;-86
2021/09/05 13:21:10;;;;;;;5.50;4.40;;;;;;;25.74;47.03;101251.41;111069;1233;61044;-84
2021/09/05 13:23:55;;;;;;;5.40;4.10;;;;;;;25.74;46.95;101256.22;111002;1230;73486;-89
2021/09/05 13:27:01;;;;;;;5.50;4.00;;;;;;;25.74;47.11;101258.35;110798;1234;65765;-86
2021/09/05 13:29:46;;;;;;;;;;;;;;;25.75;47.01;101256.34;110514;1230;61238;-85
2021/09/05 13:32:58;;;;;;;6.00;4.10;;;;;;;25.74;47.02;101262.23;110547;1229;61012;-84
2021/09/05 13:35:43;;;;;;;4.90;3.90;;;;;;;25.74;47.05;101264.33;111057;1226;64123;-82
2021/09/05 13:38:35;;;;;;;5.00;4.10;;;;;;;25.75;46.93;101269.69;111281;1230;65576;-82
2021/09/05 13:41:08;;;;;;;5.10;4.00;;;;;;;25.76;46.95;101268.53;110764;1233;61537;-86
2021/09/05 13:43:42;;;;;;;5.50;4.30;;;;;;;25.76;46.98;101272.27;110960;1226;61273;-84
2021/09/05 13:46:50;;;;;;;5.20;3.90;;;;;;;25.77;47.13;101273.46;110494;1238;62569;-85
2021/09/05 13:49:51;;;;;;;5.50;4.30;;;;;;;25.77;46.92;101273.09;110634;1235;65028;-84
2021/09/05 13:52:32;;;;;;;5.60;4.10;;;;;;;25.79;47.01;101272.64;110950;1235;61184;-89
2021/09/05 13:55:38;;;;;;;;;;;;;;;;;;;;;
2021/09/05 13:58:47;;;;;;;5.70;4.10;;;;;;;25.79;46.95;101276.40;110319;1238;65105;-91
2021/09/05 14:01:44;;;;;;;5.80;3.80;;;;;;;25.79;47.01;101276.42;110197;1242;65778;-85
2021/09/05 14:04:36;;;;;;;5.60;4.10;;;;;;;25.79;47.05;101279.99;110199;1243;61147;-85
2021/09/05 14:07:17;;;;;;;5.20;3.70;;;;;;;25.79;47.13;101280.16;109961;1244;61082;-86
2021/09/05 14:10:17;;;;;;;5.30;4.20;;;;;;;25.79;47.11;101278.88;110035;1245;71371;-85
2021/09/05 14:13:43;;;;;;;5.90;4.10;;;;;;;25.79;47.13;101277.81;110154;1241;69252;-86
2021/09/05 14:16:50;;;;;;;5.20;4.00;;;;;;;25.79;46.98;101280.54;110149;1243;61218;-86
2021/09/05 14:19:39;;;;;;;4.90;3.80;;;;;;;25.79;47.05;101281.98;110146;1243;61079;-86
2021/09/05 14:22:30;;;;;;;5.10;4.10;;;;;;;25.79;47.02;101286.83;110112;1243;64814;-87
2021/09/05 14:25:44;;;;;;;5.20;3.60;;;;;;;25.79;46.97;101288.98;110049;1244;64666;-89
2021/09/05 14:29:04;;;;;;;5.30;4.20;;;;;;;25.80;47.03;101289.85;110097;1245;61446;-86
2021/09/05 14:37:33;;;;;;;6.10;4.40;;;;;;;25.80;46.99;101290.56;110068;1242;65302;-86
2021/09/05 14:38:51;;;;;;;;;;;;;;;;;;;;;
2021/09/05 14:48:41;;;;;;;;;;;;;;;;;;;;;
2021/09/05 14:55:03;;;;;;;5.00;4.00;;;;;;;25.80;47.11;101306.63;110712;1233;61424;-87
2021/09/05 14:58:02;;;;;;;;;;;;;;;;;;;;;
2021/09/05 15:00:41;;;;;;;;;;;;;;;;;;;;;
2021/09/05 15:04:46;;;;;;;5.10;4.00;;;;;;;25.80;47.13;101303.89;111526;1228;67279;-91
2021/09/05 15:13:51;;;;;;;4.70;3.60;;;;;;;25.80;47.19;101305.14;111671;1229;65010;-91
2021/09/05 15:17:29;;;;;;;;;;;;;;;;;;;;;
2021/09/05 15:20:26;;;;;;;6.30;4.10;;;;;;;25.80;47.07;101310.94;111332;1230;61363;-87
2021/09/05 15:23:16;;;;;;;6.60;4.40;;;;;;;25.79;47.23;101313.86;111501;1230;60967;-85
2021/09/05 15:26:15;;;;;;;;;;;;;;;;;;;;;
2021/09/05 15:29:39;;;;;;;4.90;3.90;;;;;;;25.79;47.09;101323.44;111342;1231;75487;-85
2021/09/05 15:49:09;;;;;;;5.70;4.00;;;;;;;25.76;47.27;101333.61;111842;1227;61131;-82
2021/09/05 15:52:08;;;;;;;5.90;4.00;;;;;;;25.74;47.14;101339.13;111928;1227;65054;-82
2021/09/05 15:54:48;;;;;;;6.10;4.20;;;;;;;25.74;47.22;101338.59;111913;1227;75329;-81
2021/09/05 15:57:30;;;;;;;5.00;3.90;;;;;;;25.74;47.31;101345.80;112161;1223;61032;-87
2021/09/05 16:00:43;;;;;;;5.70;4.40;;;;;;;25.74;47.25;101341.71;112514;1216;60939;-83
2021/09/05 16:03:37;;;;;;;5.00;3.80;;;;;;;25.73;47.29;101347.15;112133;1219;64714;-84
2021/09/05 16:06:35;;;;;;;5.00;3.70;;;;;;;25.73;47.20;101351.50;112111;1225;66681;-86
2021/09/05 16:16:39;;;;;;;;;;;;;;;;;;;;;
2021/09/05 16:19:41;;;;;;;4.90;3.80;;;;;;;25.71;47.36;101363.95;112252;1216;65819;-86
2021/09/05 16:22:57;;;;;;;5.10;4.20;;;;;;;25.71;47.43;101367.86;112078;1220;58941;-86
2021/09/05 16:25:43;;;;;;;5.70;4.00;;;;;;;25.71;47.21;101368.41;112092;1220;60963;-86
2021/09/05 16:28:51;;;;;;;5.40;4.00;;;;;;;25.71;47.33;101374.70;111776;1222;64729;-85
2021/09/05 16:31:44;;;;;;;5.30;4.20;;;;;;;25.71;47.25;101375.62;111954;1220;66158;-90
2021/09/05 16:34:32;;;;;;;;;;;;;;;;;;;;;
2021/09/05 16:40:45;;;;;;;;;;;;;;;;;;;;;
2021/09/05 16:43:28;;;;;;;4.80;3.90;;;;;;;25.71;47.35;101381.77;111259;1232;75964;-85
2021/09/05 16:46:18;;;;;;;;;;;;;;;25.71;47.35;101386.23;111295;1224;61148;-91